• Join FlightAware (Why Join?)
  • Login
  • US Flag 
 
07:33AM EST


 

Airport Tracker/Info


-or-


 

Live Flight TrackerFlight Track Log ✈ UAL262 ✈ 26-Jun-2013 ✈ KSEA - KIAD

Flight Track Log - Related Links

Times and Time Zones

All times are in EDT time to prevent confusion due to time zone crossing. See the UAL262 flight status page for this flight to view local times or setup timezone preferences in your user account.

Time Position Orientation Groundspeed Altitude Reporting Facility
EDT Latitude Longitude Course Direction KTS MPH feet Rate Location/Type
04:30AM 47.3903 -122.3092 90° East 177 204 2,400  Level Seattle Center
04:31AM 47.3289 -122.3031 176° South 230 265 4,100 2,160 Climbing Seattle Center
04:32AM 47.5500 -121.7307 90° East  Level FlightAware Approximate
04:32AM 47.3272 -122.2014 91° East 276 318 6,800  Level Seattle Center
04:33AM 47.5500 -121.5298 90° East  Level FlightAware Approximate
04:33AM 47.3764 -122.1081 52° Northeast 290 334 9,300  Level Seattle Center
04:34AM 47.5501 -121.3289 90° East  Level FlightAware Approximate
04:34AM 47.4289 -122.0036 53° Northeast 318 366 10,700  Level Seattle Center
04:35AM 47.5500 -121.1280 90° East  Level FlightAware Approximate
04:35AM 47.4906 -121.8825 53° Northeast 368 423 12,900  Level Seattle Center
04:36AM 47.5533 -121.7572 53° Northeast 382 440 14,600 1,680 Climbing Seattle Center
04:37AM 47.5608 -121.5936 86° East 403 464 16,300 1,680 Climbing Seattle Center
04:38AM 47.5586 -121.4208 91° East 408 470 18,100 1,560 Climbing Seattle Center
04:39AM 47.5539 -121.2497 92° East 422 486 19,500 1,320 Climbing Seattle Center
04:40AM 47.5517 -121.0739 91° East 432 497 20,800 1,200 Climbing Seattle Center
04:41AM 47.5483 -120.8917 91° East 446 513 22,000 1,140 Climbing Seattle Center
04:42AM 47.5447 -120.7217 92° East 458 527 23,100 960 Climbing Seattle Center
04:43AM 47.5408 -120.5300 92° East 467 537 24,000 840 Climbing Seattle Center
04:44AM 47.5381 -120.3333 91° East 477 549 24,900 900 Climbing Seattle Center
04:45AM 47.5250 -120.1297 95° East 495 570 25,800 900 Climbing Seattle Center
04:46AM 47.5142 -119.9233 94° East 505 581 26,700 960 Climbing Seattle Center
04:47AM 47.5039 -119.7125 94° East 514 592 27,800 1,080 Climbing Seattle Center
04:48AM 47.4928 -119.5017 94° East 516 594 28,900 1,080 Climbing Seattle Center
04:49AM 47.4817 -119.2908 94° East 517 595 30,000 1,200 Climbing Seattle Center
04:50AM 47.4706 -119.0797 94° East 517 595 31,300 1,140 Climbing Seattle Center
04:51AM 47.4572 -118.8700 95° East 516 594 32,300 840 Climbing Seattle Center
04:52AM 47.4461 -118.6625 94° East 511 588 33,000 600 Climbing Seattle Center
04:53AM 47.4367 -118.4494 94° East 520 598 33,600 660 Climbing Seattle Center
04:54AM 47.4683 -118.2397 77° East 528 608 34,400 600 Climbing Seattle Center
04:55AM 47.5442 -118.0556 59° Northeast 528 608 34,900 240 Climbing Seattle Center
04:56AM 47.6278 -117.8767 55° Northeast 528 608 34,900  Level Seattle Center
04:57AM 47.7128 -117.6981 55° Northeast 532 612 34,900  Level Seattle Center
04:58AM 47.7969 -117.5142 56° Northeast 537 618 34,900  Level Seattle Center
04:59AM 47.8847 -117.3294 55° Northeast 543 625 34,900  Level Seattle Center
05:00AM 47.9675 -117.1456 56° Northeast 534 615 34,900  Level Seattle Center
05:01AM 48.0497 -116.9622 56° Northeast 530 610 34,900  Level Seattle Center
05:02AM 48.1297 -116.7767 57° Northeast 530 610 35,000  Climbing Seattle Center
05:03AM 48.1836 -116.5669 69° East 540 621 35,000  Level Seattle Center
05:04AM 48.2097 -116.3450 80° East 540 621 35,000 -60 Level Seattle Center
05:05AM 48.2264 -116.1253 83° East 534 615 34,900  Descending Seattle Center
05:06AM 48.2461 -115.9031 82° East 536 617 35,000  Climbing Seattle Center
05:07AM 48.2642 -115.6822 83° East 535 616 35,000 -60 Level Seattle Center
05:08AM 48.2836 -115.4364 83° East 533 613 34,900 -60 Descending Seattle Center
05:09AM 48.2975 -115.2583 83° East 534 615 34,900  Level Seattle Center
05:10AM 48.3114 -115.0803 83° East 534 615 35,000  Climbing Salt Lake Center
05:11AM 48.3275 -114.8578 84° East 535 616 34,900 -60 Descending Salt Lake Center
05:12AM 48.3442 -114.6350 83° East 533 613 34,900  Level Salt Lake Center
05:13AM 48.3594 -114.4103 84° East 535 616 34,900  Level Salt Lake Center
05:14AM 48.3750 -114.1861 84° East 535 616 34,900  Level Salt Lake Center
05:15AM 48.3892 -113.9625 84° East 534 615 35,000  Climbing Salt Lake Center
05:16AM 48.4033 -113.7394 84° East 534 615 35,000  Level Salt Lake Center
05:17AM 48.4167 -113.5164 85° East 534 615 35,000  Level Salt Lake Center
05:18AM 48.4303 -113.2953 85° East 531 611 35,000 -60 Level Salt Lake Center
05:19AM 48.4433 -113.0750 85° East 531 611 34,900 -60 Descending Salt Lake Center
05:20AM 48.4556 -112.8553 85° East 529 609 34,900  Level Salt Lake Center
05:21AM 48.4675 -112.6339 85° East 530 610 34,900  Level Salt Lake Center
05:22AM 48.4797 -112.4133 85° East 534 615 34,900  Level Salt Lake Center
05:23AM 48.4900 -112.1900 86° East 534 615 34,900  Level Salt Lake Center
05:24AM 48.4994 -111.9672 86° East 533 613 34,900  Level Salt Lake Center
05:25AM 48.4922 -111.7444 93° East 533 613 35,000  Climbing Salt Lake Center
05:26AM 48.4844 -111.5194 93° East 535 616 35,000 -60 Level Salt Lake Center
05:27AM 48.4772 -111.2958 93° East 535 616 34,900 -60 Descending Salt Lake Center
05:28AM 48.4689 -111.0719 93° East 534 615 34,900  Level Salt Lake Center
05:29AM 48.4600 -110.8478 93° East 535 616 35,000  Climbing Salt Lake Center
05:30AM 48.4514 -110.6208 93° East 539 620 35,000 -60 Level Salt Lake Center
05:31AM 48.4417 -110.3967 94° East 537 618 34,900 -60 Descending Salt Lake Center
05:32AM 48.4319 -110.1733 94° East 536 617 34,900  Level Salt Lake Center
05:33AM 48.4228 -109.9506 93° East 534 615 34,900  Level Salt Lake Center
05:34AM 48.4119 -109.7286 94° East 533 613 34,900  Level Salt Lake Center
05:35AM 48.4000 -109.5047 95° East 536 617 35,000  Climbing Salt Lake Center
05:36AM 48.3786 -109.2850 98° East 531 611 35,000 -60 Level Salt Lake Center
05:37AM 48.3464 -109.0678 103° East 532 612 34,900 -60 Descending Salt Lake Center
05:38AM 48.3147 -108.8503 102° East 533 613 34,900  Level Salt Lake Center
05:39AM 48.2833 -108.6311 102° East 536 617 35,000  Climbing Salt Lake Center
05:40AM 48.2531 -108.4131 102° East 536 617 35,000  Level Salt Lake Center
05:41AM 48.2214 -108.1956 102° East 536 617 35,000 -60 Level Salt Lake Center
05:42AM 48.1886 -107.9772 103° East 537 618 34,900 -60 Descending Salt Lake Center
05:43AM 48.1542 -107.7597 103° East 537 618 34,900  Level Salt Lake Center
05:44AM 48.1219 -107.5411 102° East 539 620 34,900  Level Salt Lake Center
05:45AM 48.0897 -107.3425 104° East 541 623 35,000  Climbing Salt Lake Center
05:46AM 48.0544 -107.1247 104° East 541 623 35,000 -60 Level Salt Lake Center
05:47AM 48.0211 -106.9067 103° East 540 621 34,900  Descending Salt Lake Center
05:48AM 47.9853 -106.6897 104° East 541 623 35,000  Climbing Salt Lake Center
05:49AM 47.9475 -106.4736 105° East 539 620 35,000 -60 Level Salt Lake Center
05:50AM 47.9061 -106.2153 103° East 537 618 34,900 -60 Descending Salt Lake Center
05:51AM 47.8689 -106.0017 104° East 536 617 34,900  Level Salt Lake Center
05:52AM 47.8331 -105.7875 104° East 535 616 34,900  Level Salt Lake Center
05:53AM 47.7975 -105.5744 104° East 533 613 34,900  Level Salt Lake Center
05:54AM 47.7594 -105.3625 105° East 533 613 34,900  Level Salt Lake Center
05:55AM 47.7217 -105.1519 105° East 531 611 34,900  Level Salt Lake Center
05:56AM 47.6844 -104.9406 105° East 532 612 34,900  Level Salt Lake Center
05:57AM 47.6464 -104.7292 105° East 532 612 35,000  Climbing Salt Lake Center
05:58AM 47.6064 -104.5194 106° East 532 612 35,000 -60 Level Salt Lake Center
05:59AM 47.5678 -104.3106 105° East 531 611 34,900 -60 Descending Salt Lake Center
06:00AM 47.5289 -104.1033 105° East 531 611 34,900  Level Salt Lake Center
06:01AM 47.4886 -103.8961 106° East 532 612 35,000  Climbing Salt Lake Center
06:02AM 47.4494 -103.6892 106° East 535 616 35,000 -60 Level Salt Lake Center
06:03AM 47.4108 -103.4831 105° East 533 613 34,900 -60 Descending Salt Lake Center
06:04AM 47.3711 -103.2761 106° East 531 611 34,900  Level Salt Lake Center
06:05AM 47.3411 -103.1136 105° East 526 605 34,900  Level Minneapolis Center
06:06AM 47.2992 -102.9075 107° East 527 606 34,900  Level Minneapolis Center
06:07AM 47.2581 -102.7003 106° East 530 610 34,900  Level Minneapolis Center
06:08AM 47.2150 -102.4944 107° East 529 609 35,000  Climbing Minneapolis Center
06:09AM 47.1642 -102.2467 107° East 529 609 35,000 -60 Level Minneapolis Center
06:10AM 47.1214 -102.0389 107° East 532 612 34,900  Descending Minneapolis Center
06:11AM 47.0769 -101.8322 107° East 533 613 35,000  Climbing Minneapolis Center
06:12AM 47.0256 -101.5856 107° East 530 610 34,900  Descending Minneapolis Center
06:13AM 46.9822 -101.3900 108° East 529 609 35,000  Climbing Minneapolis Center
06:14AM 46.9375 -101.1850 108° East 528 608 35,000  Level Minneapolis Center
06:15AM 46.8919 -100.9794 108° East 530 610 35,000  Level Minneapolis Center
06:16AM 46.8467 -100.7703 107° East 536 617 35,000  Level Minneapolis Center
06:17AM 46.8000 -100.5650 108° East 533 613 35,000  Level Minneapolis Center
06:18AM 46.7528 -100.3592 108° East 534 615 35,000  Level Minneapolis Center
06:19AM 46.7056 -100.1544 109° East 533 613 35,000 -60 Level Minneapolis Center
06:20AM 46.6586 -99.9472 108° East 535 616 34,900 -60 Descending Minneapolis Center
06:21AM 46.6108 -99.7439 109° East 535 616 34,900  Level Minneapolis Center
06:22AM 46.5622 -99.5397 109° East 534 615 35,000  Climbing Minneapolis Center
06:23AM 46.5142 -99.3386 109° East 530 610 35,000 -60 Level Minneapolis Center
06:24AM 46.4667 -99.1383 109° East 533 613 34,900 -60 Descending Minneapolis Center
06:25AM 46.4181 -98.9375 109° East 533 613 34,900  Level Minneapolis Center
06:26AM 46.3694 -98.7369 109° East 532 612 34,900  Level Minneapolis Center
06:27AM 46.3197 -98.5386 110° East 530 610 34,900  Level Minneapolis Center
06:28AM 46.2703 -98.3367 109° East 531 611 35,000  Climbing Minneapolis Center
06:29AM 46.2197 -98.1381 110° East 532 612 34,900 -60 Descending Minneapolis Center
06:30AM 46.1592 -97.8969 110° East 535 616 34,900  Level Minneapolis Center
06:31AM 46.1075 -97.6975 110° East 534 615 34,900  Level Minneapolis Center
06:32AM 46.0561 -97.4989 110° East 533 613 34,900  Level Minneapolis Center
06:33AM 46.0042 -97.2992 110° East 535 616 35,000  Climbing Minneapolis Center
06:34AM 45.9525 -97.1014 111° Southeast 532 612 34,900  Descending Minneapolis Center
06:35AM 45.9006 -96.9042 111° Southeast 533 613 35,000  Climbing Minneapolis Center
06:36AM 45.8469 -96.7067 111° Southeast 532 612 35,000  Level Minneapolis Center
06:38AM 45.7939 -96.5061 111° Southeast 534 615 35,000  Level Minneapolis Center
06:39AM 45.7289 -96.2661 111° Southeast 538 619 35,000  Level Minneapolis Center
06:40AM 45.6742 -96.0678 111° Southeast 537 618 35,000  Level Minneapolis Center
06:41AM 45.6197 -95.8703 111° Southeast 535 616 35,000  Level Minneapolis Center
06:42AM 45.5536 -95.6331 112° Southeast 535 616 35,000  Level Minneapolis Center
06:43AM 45.4992 -95.4378 112° Southeast 532 612 35,000  Level Minneapolis Center
06:44AM 45.4431 -95.2417 112° Southeast 533 613 35,000  Level Minneapolis Center
06:45AM 45.3881 -95.0453 112° Southeast 533 613 35,000  Level Minneapolis Center
06:46AM 45.3314 -94.8506 112° Southeast 533 613 35,000  Level Minneapolis Center
06:47AM 45.2753 -94.6572 112° Southeast 531 611 35,000  Level Minneapolis Center
06:48AM 45.2181 -94.4594 112° Southeast 534 615 35,000  Level Minneapolis Center
06:49AM 45.1633 -94.2694 112° Southeast 529 609 35,000  Level Minneapolis Center
06:50AM 45.1056 -94.0781 113° Southeast 529 609 35,000  Level Minneapolis Center
06:51AM 45.0478 -93.8858 113° Southeast 531 611 35,000  Level Minneapolis Center
06:52AM 44.9903 -93.6947 113° Southeast 530 610 35,000  Level Minneapolis Center
06:53AM 44.9319 -93.5047 113° Southeast 529 609 35,000  Level Minneapolis Center
06:54AM 44.8731 -93.3111 113° Southeast 532 612 35,000  Level Minneapolis Center
06:55AM 44.8028 -93.0878 114° Southeast 532 612 35,000 180 Level Minneapolis Center
06:56AM 44.7514 -92.9175 113° Southeast 533 613 35,400 540 Climbing Minneapolis Center
06:57AM 44.6911 -92.7283 114° Southeast 531 611 36,200 780 Climbing Minneapolis Center
06:58AM 44.6311 -92.5408 114° Southeast 529 609 37,000 360 Climbing Minneapolis Center
06:59AM 44.5717 -92.3542 114° Southeast 526 605 37,000  Level Minneapolis Center
07:00AM 44.5122 -92.1664 114° Southeast 528 608 37,000  Level Minneapolis Center
07:01AM 44.4508 -91.9808 115° Southeast 529 609 37,000  Level Minneapolis Center
07:02AM 44.3925 -91.7947 114° Southeast 525 604 37,000  Level Minneapolis Center
07:03AM 44.3194 -91.5747 115° Southeast 522 601 37,000  Level Minneapolis Center
07:04AM 44.2594 -91.3900 114° Southeast 524 603 37,000  Level Minneapolis Center
07:05AM 44.2067 -91.2311 115° Southeast 522 601 37,000  Level Minneapolis Center
07:06AM 44.1456 -91.0481 115° Southeast 523 602 37,000  Level Minneapolis Center
07:07AM 44.0861 -90.8686 115° Southeast 517 595 37,000  Level Minneapolis Center
07:08AM 44.0253 -90.6883 115° Southeast 517 595 37,000  Level Minneapolis Center
07:09AM 43.9564 -90.4883 116° Southeast 514 592 37,000  Level Minneapolis Center
07:10AM 43.8961 -90.3075 115° Southeast 516 594 37,000  Level Minneapolis Center
07:11AM 43.8325 -90.1331 117° Southeast 510 587 37,000  Level Minneapolis Center
07:12AM 43.7717 -89.9569 116° Southeast 507 583 37,000 -60 Level Minneapolis Center
07:13AM 43.7131 -89.7825 115° Southeast 503 579 36,900  Descending Minneapolis Center
07:14AM 43.6503 -89.6053 116° Southeast 509 586 37,000  Climbing Minneapolis Center
07:15AM 43.5886 -89.4328 116° Southeast 505 581 37,000  Level Minneapolis Center
07:16AM 43.5264 -89.2586 116° Southeast 505 581 37,000  Level Minneapolis Center
07:17AM 43.4650 -89.0872 116° Southeast 503 579 37,000  Level Minneapolis Center
07:18AM 43.3922 -88.8881 117° Southeast 502 578 37,000  Level Minneapolis Center
07:19AM 43.3300 -88.7183 117° Southeast 502 578 37,000  Level Minneapolis Center
07:20AM 43.2672 -88.5483 117° Southeast 507 583 37,000  Level Minneapolis Center
07:21AM 43.2039 -88.3758 117° Southeast 512 589 37,000  Level Minneapolis Center
07:22AM 43.1414 -88.2036 116° Southeast 510 587 37,000  Level Minneapolis Center
07:23AM 43.0775 -88.0308 117° Southeast 510 587 37,000  Level Minneapolis Center
07:24AM 43.0136 -87.8592 117° Southeast 506 582 37,000  Level Minneapolis Center
07:25AM 42.9286 -87.6336 117° Southeast 503 579 37,000  Level Chicago Center
07:26AM 42.8642 -87.4658 118° Southeast 501 577 37,000  Level Chicago Center
07:28AM 42.8039 -87.3069 117° Southeast 504 580 37,000  Level Chicago Center
07:29AM 42.7394 -87.1400 118° Southeast 502 578 37,000  Level Chicago Center
07:30AM 42.6756 -86.9744 118° Southeast 499 574 37,000  Level Chicago Center
07:31AM 42.5981 -86.7758 118° Southeast 500 575 37,000  Level Chicago Center
07:32AM 42.5325 -86.6094 118° Southeast 503 579 37,000  Level Chicago Center
07:33AM 42.4672 -86.4467 118° Southeast 499 574 37,000  Level Chicago Center
07:34AM 42.4033 -86.2839 118° Southeast 494 568 37,000  Level Chicago Center
07:35AM 42.3386 -86.1233 119° Southeast 491 565 37,000  Level Chicago Center
07:36AM 42.2739 -85.9619 118° Southeast 492 566 37,000 -180 Level Chicago Center
07:37AM 42.1969 -85.7700 118° Southeast 488 562 36,700 -600 Descending Chicago Center
07:38AM 42.1333 -85.6128 119° Southeast 482 555 35,900 -840 Descending Chicago Center
07:39AM 42.0686 -85.4547 119° Southeast 485 558 35,100 -480 Descending Chicago Center
07:40AM 42.0044 -85.2956 118° Southeast 487 560 35,000 -60 Descending Chicago Center
07:41AM 41.9436 -85.1486 119° Southeast 486 559 35,000  Level Chicago Center
07:42AM 41.8664 -84.9581 119° Southeast 480 552 35,000  Level Chicago Center
07:43AM 41.8003 -84.8000 119° Southeast 483 556 35,000  Level Chicago Center
07:44AM 41.7358 -84.6458 119° Southeast 475 547 35,000 -60 Level Chicago Center
07:45AM 41.6956 -84.5464 118° Southeast 480 552 34,900  Descending Cleveland Center
07:46AM 41.6617 -84.3775 105° East 466 536 35,000  Climbing Cleveland Center
07:47AM 41.6319 -84.1950 102° East 466 536 35,000  Level Cleveland Center
07:48AM 41.6097 -84.0356 101° East 466 536 35,000  Level Cleveland Center
07:49AM 41.5919 -83.8650 98° East 466 536 35,000  Level Cleveland Center
07:50AM 41.5694 -83.6972 100° East 466 536 35,000  Level Cleveland Center
07:51AM 41.5489 -83.5244 99° East 466 536 35,000  Level Cleveland Center
07:52AM 41.5344 -83.3544 96° East 466 536 35,000  Level Cleveland Center
07:53AM 41.4797 -83.2025 116° Southeast 449 517 35,000  Level Cleveland Center
07:54AM 41.4056 -83.0664 126° Southeast 449 517 35,000  Level Cleveland Center
07:55AM 41.3314 -82.9336 127° Southeast 455 524 35,000  Level Cleveland Center
07:56AM 41.2569 -82.7956 126° Southeast 460 529 35,000  Level Cleveland Center
07:57AM 41.1822 -82.6606 126° Southeast 460 529 35,000  Level Cleveland Center
07:58AM 41.1056 -82.5258 127° Southeast 460 529 35,000  Level Cleveland Center
07:59AM 41.0244 -82.3803 126° Southeast 460 529 35,000  Level Cleveland Center
08:00AM 40.9472 -82.2464 127° Southeast 460 529 35,000  Level Cleveland Center
08:01AM 40.8719 -82.1097 126° Southeast 460 529 35,000  Level Cleveland Center
08:02AM 40.7967 -81.9764 127° Southeast 465 535 35,000  Level Cleveland Center
08:03AM 40.7231 -81.8433 126° Southeast 458 527 35,000  Level Cleveland Center
08:04AM 40.6472 -81.7133 128° Southeast 458 527 35,000  Level Cleveland Center
08:05AM 40.5736 -81.5808 126° Southeast 458 527 35,000  Level Cleveland Center
08:06AM 40.4975 -81.4486 127° Southeast 458 527 35,000  Level Cleveland Center
08:07AM 40.4233 -81.3167 126° Southeast 458 527 35,000  Level Cleveland Center
08:08AM 40.3600 -81.2108 128° Southeast 451 519 35,000  Level Indianapolis Center
08:09AM 40.2833 -81.0794 127° Southeast 451 519 35,000  Level Indianapolis Center
08:10AM 40.1928 -80.9258 128° Southeast 453 521 35,000  Level Indianapolis Center
08:11AM 40.1192 -80.7975 127° Southeast 453 521 35,000  Level Cleveland Center
08:12AM 40.0422 -80.6697 128° Southeast 453 521 35,000  Level Cleveland Center
08:13AM 39.9733 -80.5506 127° Southeast 453 521 35,000  Level Cleveland Center
08:14AM 39.8983 -80.4233 128° Southeast 453 521 35,000 -120 Level Cleveland Center
08:16AM 39.7064 -80.1042 128° Southeast 444 511 34,700 -420 Descending Washington Center
08:17AM 39.6275 -79.9781 129° Southeast 449 517 33,600 -1,860 Descending Washington Center
08:18AM 39.5639 -79.8342 120° Southeast 449 517 31,000 -2,400 Descending Washington Center
08:19AM 39.5258 -79.6731 107° East 454 522 28,900 -2,400 Descending Washington Center
08:20AM 39.4942 -79.4964 103° East 460 529 26,300 -2,880 Descending Washington Center
08:21AM 39.4658 -79.3389 103° East 460 529 23,100 -2,580 Descending Washington Center
08:22AM 39.4408 -79.2033 103° East 445 512 21,300 -1,680 Descending Washington Center
08:23AM 39.4136 -79.0597 104° East 427 491 19,800 -1,500 Descending Washington Center
08:24AM 39.3883 -78.9242 104° East 408 470 18,300 -1,500 Descending Washington Center
08:25AM 39.3650 -78.7861 102° East 397 457 16,800 -1,500 Descending Washington Center
08:26AM 39.3394 -78.6481 103° East 397 457 15,400 -1,380 Descending Washington Center
08:27AM 39.3156 -78.5183 103° East 385 443 14,100 -1,320 Descending Washington Center
08:28AM 39.2933 -78.3967 103° East 367 422 12,800 -1,200 Descending Washington Center
08:29AM 39.2733 -78.2728 102° East 355 409 11,800 -1,140 Descending Washington Center
08:30AM 39.2633 -78.1569 96° East 338 389 10,600 -1,380 Descending Washington Center
08:31AM 39.2742 -78.0394 83° East 304 350 9,200 -1,380 Descending Washington Center
08:32AM 39.2931 -77.9328 77° East 304 350 7,900 -1,380 Descending Washington Center
08:33AM 39.2969 -77.8256 87° East 304 350 6,500 -1,440 Descending Washington Center
08:34AM 39.2928 -77.7236 93° East 289 333 5,100 -960 Descending Washington Center
08:35AM 39.2567 -77.6394 119° Southeast 273 314 4,600 -780 Descending Washington Center
08:36AM 39.2333 -77.5667 112° Southeast 265 305 3,700 -900 Descending Potomac TRACON
08:37AM 39.1833 -77.5000 134° Southeast 238 274 3,000 -420 Descending Potomac TRACON
08:38AM 39.1500 -77.4500 131° Southeast 214 246 3,000 -240 Level Potomac TRACON
08:39AM 39.1000 -77.4500 180° South 187 215 2,600 -420 Descending Potomac TRACON